createdAt,value
2022-11-17T00:01:40.248Z,3.92
2022-11-17T00:04:07.505Z,3.80
2022-11-17T00:06:34.199Z,3.70
2022-11-17T00:09:01.434Z,3.42
2022-11-17T00:11:48.033Z,3.50
2022-11-17T00:14:33.704Z,3.33
2022-11-17T00:17:01.126Z,3.90
2022-11-17T00:19:47.384Z,3.33
2022-11-17T00:22:14.006Z,3.28
2022-11-17T00:24:41.331Z,3.70
2022-11-17T00:27:08.043Z,3.40
2022-11-17T00:29:38.663Z,3.20
2022-11-17T00:32:34.762Z,2.90
2022-11-17T00:35:01.779Z,3.25
2022-11-17T00:37:37.358Z,3.05
2022-11-17T00:40:05.892Z,3.00
2022-11-17T00:42:32.787Z,2.72
2022-11-17T00:44:59.728Z,2.47
2022-11-17T00:47:26.319Z,3.15
2022-11-17T00:49:53.646Z,2.88
2022-11-17T00:52:20.308Z,3.17
2022-11-17T00:54:47.691Z,2.90
2022-11-17T00:57:14.276Z,2.95
2022-11-17T00:59:41.485Z,2.75
2022-11-17T01:02:08.090Z,3.17
2022-11-17T01:04:35.360Z,3.13
2022-11-17T01:07:02.082Z,1.75
2022-11-17T01:09:29.368Z,2.08
2022-11-17T01:11:55.976Z,2.22
2022-11-17T01:14:45.099Z,2.83
2022-11-17T01:17:11.684Z,2.45
2022-11-17T01:19:38.976Z,2.25
2022-11-17T01:22:06.998Z,2.60
2022-11-17T01:24:33.993Z,2.35
2022-11-17T01:27:00.598Z,2.42
2022-11-17T01:29:27.856Z,2.08
2022-11-17T01:31:54.469Z,2.50
2022-11-17T01:34:21.849Z,2.25
2022-11-17T01:37:07.442Z,2.25
2022-11-17T01:39:34.746Z,2.58
2022-11-17T01:42:15.655Z,2.45
2022-11-17T01:45:02.061Z,2.53
2022-11-17T01:47:34.986Z,1.90
2022-11-17T01:50:06.943Z,2.58
2022-11-17T01:52:36.218Z,1.95
2022-11-17T01:55:03.811Z,2.50
2022-11-17T01:57:42.836Z,2.17
2022-11-17T02:00:11.421Z,2.38
2022-11-17T02:02:41.515Z,2.13
2022-11-17T02:05:23.795Z,3.15
2022-11-17T02:07:54.971Z,2.10
2022-11-17T02:10:21.949Z,2.30
2022-11-17T02:12:49.689Z,2.15
2022-11-17T02:15:16.610Z,2.35
2022-11-17T02:17:44.311Z,1.90
2022-11-17T02:20:12.631Z,2.63
2022-11-17T02:22:52.064Z,2.83
2022-11-17T02:25:40.480Z,2.13
2022-11-17T02:28:20.728Z,2.22
2022-11-17T02:31:12.222Z,2.08
2022-11-17T02:33:55.084Z,1.88
2022-11-17T02:36:43.610Z,2.08
2022-11-17T02:39:18.035Z,1.60
2022-11-17T02:42:11.583Z,2.28
2022-11-17T02:45:00.342Z,1.85
2022-11-17T02:47:31.463Z,2.05
2022-11-17T02:50:05.523Z,1.92
2022-11-17T02:52:33.585Z,2.10
2022-11-17T02:55:07.224Z,2.47
2022-11-17T02:57:39.677Z,2.00
2022-11-17T03:00:20.467Z,1.40
2022-11-17T03:03:22.163Z,1.92
2022-11-17T03:06:30.007Z,2.20
2022-11-17T03:09:18.816Z,2.08
2022-11-17T03:11:50.940Z,2.05
2022-11-17T03:15:03.569Z,2.10
2022-11-17T03:18:04.510Z,2.20
2022-11-17T03:20:51.756Z,1.63
2022-11-17T03:23:23.072Z,2.28
2022-11-17T03:25:54.730Z,1.98
2022-11-17T03:28:31.219Z,1.85
2022-11-17T03:31:00.979Z,1.67
2022-11-17T03:33:29.172Z,1.83
2022-11-17T03:36:06.873Z,2.20
2022-11-17T03:38:38.808Z,1.50
2022-11-17T03:41:10.168Z,1.35
2022-11-17T03:43:38.940Z,1.60
2022-11-17T03:46:10.325Z,2.00
2022-11-17T03:48:59.910Z,1.70
2022-11-17T03:51:30.593Z,1.70
2022-11-17T03:53:58.045Z,1.83
2022-11-17T03:56:27.458Z,1.38
2022-11-17T03:59:03.297Z,1.65
2022-11-17T04:01:32.141Z,1.10
2022-11-17T04:04:00.337Z,1.40
2022-11-17T04:06:27.458Z,1.73
2022-11-17T04:08:54.161Z,1.45
2022-11-17T04:11:39.670Z,1.73
2022-11-17T04:14:24.874Z,1.45
2022-11-17T04:16:52.194Z,1.20
2022-11-17T04:19:18.813Z,1.95
2022-11-17T04:21:46.053Z,1.40
2022-11-17T04:24:12.908Z,0.90
2022-11-17T04:26:59.018Z,1.63
2022-11-17T04:29:25.675Z,1.58
2022-11-17T04:31:52.906Z,1.40
2022-11-17T04:34:19.531Z,1.90
2022-11-17T04:36:46.591Z,1.05
2022-11-17T04:39:15.796Z,0.90
2022-11-17T04:41:57.524Z,1.40
2022-11-17T04:44:26.261Z,1.63
2022-11-17T04:46:55.111Z,1.10
2022-11-17T04:49:23.452Z,1.15
2022-11-17T04:51:52.481Z,1.48
2022-11-17T04:54:21.617Z,1.20
2022-11-17T04:56:48.968Z,1.50
2022-11-17T04:59:15.664Z,1.33
2022-11-17T05:01:43.045Z,1.40
2022-11-17T05:04:12.602Z,1.75
2022-11-17T05:06:42.849Z,1.30
2022-11-17T05:09:12.767Z,1.40
2022-11-17T05:11:59.189Z,1.40
2022-11-17T05:14:27.309Z,1.70
2022-11-17T05:17:11.290Z,1.52
2022-11-17T05:19:40.664Z,1.70
2022-11-17T05:22:27.746Z,1.67
2022-11-17T05:24:55.082Z,1.77
2022-11-17T05:27:23.165Z,1.80
2022-11-17T05:29:50.156Z,2.20
2022-11-17T05:32:17.737Z,2.20
2022-11-17T05:34:44.383Z,2.08
2022-11-17T05:37:11.510Z,2.28
2022-11-17T05:39:38.764Z,1.92
2022-11-17T05:42:05.552Z,2.15
2022-11-17T05:44:32.828Z,2.25
2022-11-17T05:46:59.554Z,2.35
2022-11-17T05:49:26.837Z,2.20
2022-11-17T05:51:53.507Z,2.30
2022-11-17T05:54:20.968Z,1.90
2022-11-17T05:57:06.417Z,2.05
2022-11-17T05:59:40.464Z,1.95
2022-11-17T06:02:25.296Z,2.72
2022-11-17T06:04:52.673Z,2.17
2022-11-17T06:07:20.353Z,2.40
2022-11-17T06:09:47.588Z,2.33
2022-11-17T06:12:15.666Z,2.30
2022-11-17T06:14:42.799Z,1.77
2022-11-17T06:17:22.604Z,1.98
2022-11-17T06:19:55.998Z,1.70
2022-11-17T06:22:26.077Z,2.28
2022-11-17T06:24:53.845Z,1.50
2022-11-17T06:27:21.710Z,2.40
2022-11-17T06:29:49.267Z,1.80
2022-11-17T06:32:19.122Z,1.95
2022-11-17T06:34:53.634Z,1.60
2022-11-17T06:37:22.639Z,1.58
2022-11-17T06:39:49.364Z,1.92
2022-11-17T06:42:16.340Z,1.85
2022-11-17T06:44:44.089Z,1.70
2022-11-17T06:47:10.680Z,1.58
2022-11-17T06:49:38.323Z,1.75
2022-11-17T06:52:05.283Z,2.35
2022-11-17T06:54:31.907Z,1.92
2022-11-17T06:56:58.924Z,1.77
2022-11-17T06:59:26.265Z,2.05
2022-11-17T07:01:52.849Z,2.20
2022-11-17T07:04:20.098Z,2.08
2022-11-17T07:06:46.727Z,2.08
2022-11-17T07:09:13.989Z,1.65
2022-11-17T07:11:40.583Z,1.65
2022-11-17T07:14:07.927Z,1.63
2022-11-17T07:16:34.602Z,1.10
2022-11-17T07:19:03.914Z,1.50
2022-11-17T07:21:31.033Z,1.90
2022-11-17T07:24:00.843Z,1.55
2022-11-17T07:26:27.447Z,1.40
2022-11-17T07:28:55.161Z,1.23
2022-11-17T07:31:21.850Z,1.42
2022-11-17T07:33:50.485Z,1.58
2022-11-17T07:36:17.109Z,0.70
2022-11-17T07:38:44.429Z,1.13
2022-11-17T07:41:13.666Z,1.20
2022-11-17T07:43:41.038Z,0.98
2022-11-17T07:46:11.130Z,1.58
2022-11-17T07:48:39.105Z,0.90
2022-11-17T07:51:06.359Z,1.40
2022-11-17T07:53:35.346Z,1.00
2022-11-17T07:56:06.104Z,0.82
2022-11-17T07:58:34.210Z,0.95
2022-11-17T08:01:08.293Z,1.05
2022-11-17T08:03:35.780Z,1.15
2022-11-17T08:06:07.205Z,0.98
2022-11-17T08:08:35.715Z,1.23
2022-11-17T08:11:07.227Z,0.88
2022-11-17T08:13:35.016Z,0.90
2022-11-17T08:16:01.751Z,0.70
2022-11-17T08:18:29.561Z,1.15
2022-11-17T08:21:08.459Z,1.20
2022-11-17T08:23:36.268Z,1.35
2022-11-17T08:26:04.892Z,1.17
2022-11-17T08:28:34.423Z,1.02
2022-11-17T08:31:02.855Z,1.17
2022-11-17T08:33:30.497Z,1.48
2022-11-17T08:36:09.385Z,1.10
2022-11-17T08:38:37.772Z,1.30
2022-11-17T08:41:07.641Z,1.27
2022-11-17T08:43:35.320Z,1.60
2022-11-17T08:46:02.619Z,1.13
2022-11-17T08:48:31.864Z,1.10
2022-11-17T08:50:59.048Z,1.17
2022-11-17T08:53:26.470Z,1.13
2022-11-17T08:55:53.159Z,1.23
2022-11-17T08:58:20.502Z,1.55
2022-11-17T09:00:47.892Z,1.15
2022-11-17T09:03:14.625Z,0.90
2022-11-17T09:05:49.288Z,1.60
2022-11-17T09:08:56.389Z,1.20
2022-11-17T09:11:08.657Z,1.45
2022-11-17T09:13:36.420Z,1.17
2022-11-17T09:16:05.001Z,1.08
2022-11-17T09:18:32.566Z,1.00
2022-11-17T09:21:07.423Z,1.05
2022-11-17T09:23:35.652Z,1.10
2022-11-17T09:26:07.694Z,1.05
2022-11-17T09:28:35.224Z,1.33
2022-11-17T09:31:15.257Z,0.90
2022-11-17T09:33:42.932Z,1.20
2022-11-17T09:36:11.683Z,1.00
2022-11-17T09:38:39.214Z,1.00
2022-11-17T09:41:24.458Z,1.15
2022-11-17T09:44:12.970Z,1.20
2022-11-17T09:46:57.402Z,1.10
2022-11-17T09:49:31.131Z,1.00
2022-11-17T09:52:03.648Z,0.70
2022-11-17T09:57:04.956Z,1.25
2022-11-17T09:59:33.543Z,1.27
2022-11-17T10:02:00.195Z,1.02
2022-11-17T10:04:30.285Z,1.05
2022-11-17T10:06:58.098Z,1.25
2022-11-17T10:09:42.916Z,1.00
2022-11-17T10:12:20.512Z,1.27
2022-11-17T10:14:51.290Z,0.90
2022-11-17T10:17:18.339Z,0.88
2022-11-17T10:19:45.725Z,1.00
2022-11-17T10:22:27.524Z,0.77
2022-11-17T10:24:55.688Z,1.40
2022-11-17T10:27:32.482Z,0.70
2022-11-17T10:30:19.837Z,0.90
2022-11-17T10:33:04.592Z,0.85
2022-11-17T10:35:34.572Z,0.70
2022-11-17T10:38:17.133Z,1.00
2022-11-17T10:40:44.372Z,0.85
2022-11-17T10:43:14.020Z,0.90
2022-11-17T10:45:50.008Z,0.80
2022-11-17T10:48:36.374Z,0.82
2022-11-17T10:51:11.001Z,0.82
2022-11-17T10:53:46.292Z,0.95
2022-11-17T10:56:21.389Z,0.70
2022-11-17T10:59:02.458Z,0.65
2022-11-17T11:01:35.224Z,0.65
2022-11-17T11:04:05.298Z,0.75
2022-11-17T11:06:33.922Z,1.15
2022-11-17T11:09:07.197Z,1.10
2022-11-17T11:14:52.628Z,0.65
2022-11-17T11:17:20.228Z,0.82
2022-11-17T11:19:52.557Z,0.47
2022-11-17T11:22:31.414Z,0.68
2022-11-17T11:25:03.669Z,1.10
2022-11-17T11:28:05.121Z,0.85
2022-11-17T11:30:53.383Z,0.77
2022-11-17T11:33:34.219Z,1.08
2022-11-17T11:36:11.612Z,0.82
2022-11-17T11:39:22.605Z,0.90
2022-11-17T11:42:06.533Z,1.00
2022-11-17T11:44:56.615Z,1.02
2022-11-17T11:47:53.598Z,0.90
2022-11-17T11:50:32.187Z,1.30
2022-11-17T11:53:11.698Z,0.90
2022-11-17T11:55:41.030Z,1.00
2022-11-17T11:58:07.554Z,0.70
2022-11-17T12:00:35.314Z,1.10
2022-11-17T12:03:21.137Z,0.80
2022-11-17T12:06:00.441Z,0.82
2022-11-17T12:08:38.680Z,0.80
2022-11-17T12:11:33.366Z,1.02
2022-11-17T12:14:03.374Z,0.73
2022-11-17T12:16:34.388Z,0.93
2022-11-17T12:19:01.702Z,0.90
2022-11-17T12:21:30.685Z,1.27
2022-11-17T12:24:18.476Z,1.30
2022-11-17T12:26:45.164Z,0.93
2022-11-17T12:29:21.578Z,0.77
2022-11-17T12:31:52.199Z,0.93
2022-11-17T12:34:29.191Z,0.88
2022-11-17T12:37:16.896Z,1.25
2022-11-17T12:39:56.741Z,1.45
2022-11-17T12:42:23.923Z,0.82
2022-11-17T12:44:57.085Z,1.15
2022-11-17T12:47:32.256Z,1.10
2022-11-17T12:50:18.037Z,0.70
2022-11-17T12:52:53.399Z,1.20
2022-11-17T12:55:29.592Z,1.02
2022-11-17T12:58:10.718Z,1.40
2022-11-17T13:00:52.734Z,1.25
2022-11-17T13:03:28.135Z,1.23
2022-11-17T13:06:33.769Z,1.02
2022-11-17T13:09:07.580Z,1.05
2022-11-17T13:11:35.216Z,1.30
2022-11-17T13:14:17.162Z,0.80
2022-11-17T13:16:47.919Z,0.90
2022-11-17T13:19:32.777Z,0.88
2022-11-17T13:22:15.075Z,0.90
2022-11-17T13:24:48.148Z,1.00
2022-11-17T13:27:30.685Z,1.52
2022-11-17T13:30:16.326Z,1.55
2022-11-17T13:32:43.493Z,1.13
2022-11-17T13:35:32.000Z,0.80
2022-11-17T13:38:17.631Z,1.50
2022-11-17T13:40:45.219Z,1.30
2022-11-17T13:43:17.421Z,1.08
2022-11-17T13:45:45.637Z,0.95
2022-11-17T13:48:38.437Z,0.82
2022-11-17T13:51:38.714Z,1.23
2022-11-17T13:54:14.040Z,0.93
2022-11-17T13:56:48.738Z,0.88
2022-11-17T13:59:24.115Z,0.90
2022-11-17T14:02:16.794Z,0.80
2022-11-17T14:05:14.609Z,1.27
2022-11-17T14:07:42.989Z,0.90
2022-11-17T14:10:21.945Z,1.30
2022-11-17T14:13:14.688Z,1.08
2022-11-17T14:15:42.566Z,0.95
2022-11-17T14:18:37.087Z,1.30
2022-11-17T14:21:16.757Z,1.15
2022-11-17T14:23:44.689Z,1.20
2022-11-17T14:26:23.703Z,1.13
2022-11-17T14:28:52.080Z,1.63
2022-11-17T14:31:19.747Z,2.47
2022-11-17T14:33:46.791Z,1.67
2022-11-17T14:36:16.470Z,1.30
2022-11-17T14:38:47.604Z,0.98
2022-11-17T14:41:16.635Z,1.13
2022-11-17T14:43:43.745Z,1.40
2022-11-17T14:46:26.903Z,1.30
2022-11-17T14:48:55.348Z,1.63
2022-11-17T14:51:22.888Z,1.00
2022-11-17T14:53:49.955Z,1.10
2022-11-17T14:56:19.995Z,1.40
2022-11-17T14:58:48.028Z,1.27
2022-11-17T15:01:24.504Z,1.30
2022-11-17T15:03:53.250Z,1.50
2022-11-17T15:06:20.589Z,1.80
2022-11-17T15:08:53.345Z,2.03
2022-11-17T15:11:19.993Z,1.98
2022-11-17T15:13:46.622Z,1.70
2022-11-17T15:16:13.973Z,1.45
2022-11-17T15:18:40.627Z,1.40
2022-11-17T15:21:09.722Z,1.63
2022-11-17T15:23:38.997Z,1.23
2022-11-17T15:26:15.869Z,1.48
2022-11-17T15:28:43.201Z,1.20
2022-11-17T15:31:15.798Z,1.40
2022-11-17T15:33:44.448Z,1.42
2022-11-17T15:36:18.193Z,1.48
2022-11-17T15:38:45.329Z,1.45
2022-11-17T15:41:14.100Z,1.13
2022-11-17T15:43:42.876Z,1.50
2022-11-17T15:46:18.274Z,1.33
2022-11-17T15:48:46.537Z,1.67
2022-11-17T15:51:19.194Z,1.50
2022-11-17T15:53:47.131Z,4.25
2022-11-17T15:56:25.844Z,54.67
2022-11-17T15:58:57.790Z,11.98
2022-11-17T16:01:25.174Z,4.32
2022-11-17T16:03:56.261Z,4.85
2022-11-17T16:06:23.234Z,5.47
2022-11-17T16:08:49.833Z,3.50
2022-11-17T16:11:17.230Z,6.45
2022-11-17T16:13:43.828Z,5.05
2022-11-17T16:16:15.294Z,10.00
2022-11-17T16:18:42.195Z,3.75
2022-11-17T16:21:12.531Z,2.72
2022-11-17T16:23:47.343Z,2.63
2022-11-17T16:26:16.212Z,2.47
2022-11-17T16:28:43.014Z,3.47
2022-11-17T16:31:20.712Z,2.00
2022-11-17T16:33:49.141Z,2.20
2022-11-17T16:36:17.230Z,2.30
2022-11-17T16:38:59.708Z,2.10
2022-11-17T16:41:30.905Z,2.10
2022-11-17T16:43:58.281Z,2.33
2022-11-17T16:46:30.509Z,2.10
2022-11-17T16:49:02.263Z,1.90
2022-11-17T16:51:29.257Z,1.67
2022-11-17T16:53:59.169Z,2.03
2022-11-17T16:56:26.153Z,1.88
2022-11-17T16:58:53.246Z,3.13
2022-11-17T17:01:22.964Z,5.35
2022-11-17T17:03:49.921Z,6.70
2022-11-17T17:06:18.605Z,6.30
2022-11-17T17:08:45.233Z,13.75
2022-11-17T17:11:14.923Z,7.80
2022-11-17T17:13:42.679Z,6.15
2022-11-17T17:16:15.948Z,2.47
2022-11-17T17:21:18.728Z,2.92
2022-11-17T17:23:45.737Z,2.65
2022-11-17T17:26:17.350Z,3.40
2022-11-17T17:28:45.800Z,2.80
2022-11-17T17:31:20.762Z,4.32
2022-11-17T17:33:49.886Z,4.60
2022-11-17T17:36:19.873Z,6.28
2022-11-17T17:38:53.357Z,3.28
2022-11-17T17:41:27.058Z,2.75
2022-11-17T17:43:57.423Z,3.28
2022-11-17T17:46:25.092Z,3.70
2022-11-17T17:48:52.457Z,2.83
2022-11-17T17:51:21.842Z,4.15
2022-11-17T17:53:51.257Z,3.30
2022-11-17T17:56:20.618Z,2.55
2022-11-17T17:58:50.317Z,2.80
2022-11-17T18:01:19.825Z,3.45
2022-11-17T18:03:48.409Z,3.70
2022-11-17T18:06:21.394Z,4.05
2022-11-17T18:08:49.365Z,3.33
2022-11-17T18:11:19.260Z,5.05
2022-11-17T18:13:48.891Z,3.78
2022-11-17T18:16:18.667Z,4.20
2022-11-17T18:18:46.072Z,3.95
2022-11-17T18:21:15.673Z,3.05
2022-11-17T18:23:43.010Z,3.00
2022-11-17T18:26:19.551Z,2.80
2022-11-17T18:28:53.430Z,3.00
2022-11-17T18:31:21.963Z,2.72
2022-11-17T18:33:57.226Z,4.47
2022-11-17T18:36:24.742Z,3.65
2022-11-17T18:38:53.059Z,3.60
2022-11-17T18:41:21.315Z,4.43
2022-11-17T18:43:48.589Z,4.20
2022-11-17T18:46:21.794Z,4.25
2022-11-17T18:48:53.628Z,3.17
2022-11-17T18:51:22.849Z,4.53
2022-11-17T18:53:52.120Z,3.10
2022-11-17T18:56:21.090Z,3.08
2022-11-17T18:58:48.580Z,3.80
2022-11-17T19:01:24.042Z,3.42
2022-11-17T19:03:53.719Z,3.83
2022-11-17T19:06:22.269Z,5.13
2022-11-17T19:08:50.298Z,3.03
2022-11-17T19:11:19.124Z,4.45
2022-11-17T19:13:46.859Z,4.65
2022-11-17T19:16:19.852Z,5.57
2022-11-17T19:18:49.115Z,7.43
2022-11-17T19:21:25.692Z,8.18
2022-11-17T19:23:54.699Z,9.20
2022-11-17T19:26:23.656Z,6.70
2022-11-17T19:28:50.943Z,7.00
2022-11-17T19:31:19.633Z,5.50
2022-11-17T19:33:47.798Z,6.22
2022-11-17T19:36:17.847Z,8.45
2022-11-17T19:38:51.553Z,19.75
2022-11-17T19:41:20.848Z,13.02
2022-11-17T19:43:48.550Z,24.13
2022-11-17T19:46:17.011Z,19.50
2022-11-17T19:48:44.918Z,16.90
2022-11-17T19:51:26.794Z,15.60
2022-11-17T19:53:56.321Z,10.98
2022-11-17T19:56:24.640Z,13.07
2022-11-17T19:58:54.003Z,15.90
2022-11-17T20:01:25.875Z,36.75
2022-11-17T20:03:53.435Z,23.95
2022-11-17T20:06:23.248Z,11.40
2022-11-17T20:08:50.727Z,6.25
2022-11-17T20:11:26.005Z,3.83
2022-11-17T20:13:54.519Z,4.05
2022-11-17T20:16:26.684Z,3.58
2022-11-17T20:18:56.407Z,2.97
2022-11-17T20:21:27.848Z,4.20
2022-11-17T20:23:57.891Z,4.13
2022-11-17T20:26:30.469Z,3.90
2022-11-17T20:28:58.576Z,3.10
2022-11-17T20:31:29.108Z,3.47
2022-11-17T20:33:58.536Z,5.32
2022-11-17T20:36:25.484Z,12.27
2022-11-17T20:38:53.857Z,7.05
2022-11-17T20:41:21.294Z,9.23
2022-11-17T20:43:49.414Z,17.17
2022-11-17T20:46:16.374Z,13.55
2022-11-17T20:48:44.156Z,8.68
2022-11-17T20:51:13.664Z,5.97
2022-11-17T20:53:41.078Z,7.88
2022-11-17T20:56:10.052Z,5.70
2022-11-17T20:58:37.923Z,6.07
2022-11-17T21:01:09.986Z,5.32
2022-11-17T21:03:37.938Z,5.00
2022-11-17T21:06:05.323Z,6.05
2022-11-17T21:08:37.133Z,10.07
2022-11-17T21:11:06.757Z,9.27
2022-11-17T21:13:35.667Z,7.00
2022-11-17T21:16:11.274Z,5.93
2022-11-17T21:18:44.354Z,5.75
2022-11-17T21:21:11.339Z,12.30
2022-11-17T21:23:40.097Z,15.80
2022-11-17T21:26:12.532Z,6.60
2022-11-17T21:28:40.045Z,6.18
2022-11-17T21:31:12.352Z,8.82
2022-11-17T21:33:40.293Z,8.07
2022-11-17T21:36:17.783Z,10.23
2022-11-17T21:38:45.759Z,17.60
2022-11-17T21:41:21.127Z,11.82
2022-11-17T21:43:49.520Z,7.45
2022-11-17T21:46:21.819Z,8.07
2022-11-17T21:48:50.344Z,8.55
2022-11-17T21:51:18.516Z,5.88
2022-11-17T21:53:46.115Z,6.20
2022-11-17T21:56:13.355Z,5.35
2022-11-17T21:58:40.365Z,6.20
2022-11-17T22:01:09.375Z,6.47
2022-11-17T22:03:38.009Z,5.43
2022-11-17T22:06:13.157Z,6.10
2022-11-17T22:08:42.867Z,6.07
2022-11-17T22:11:11.897Z,6.00
2022-11-17T22:13:40.366Z,5.18
2022-11-17T22:16:09.540Z,5.55
2022-11-17T22:18:36.922Z,7.20
2022-11-17T22:21:04.649Z,5.47
2022-11-17T22:23:31.894Z,6.05
2022-11-17T22:26:05.473Z,38.67
2022-11-17T22:28:32.922Z,15.68
2022-11-17T22:30:59.614Z,6.30
2022-11-17T22:33:26.898Z,5.95
2022-11-17T22:35:53.606Z,10.70
2022-11-17T22:38:20.914Z,12.60
2022-11-17T22:40:47.546Z,7.35
2022-11-17T22:43:15.659Z,6.78
2022-11-17T22:45:42.619Z,5.55
2022-11-17T22:48:10.110Z,7.28
2022-11-17T22:50:36.926Z,6.70
2022-11-17T22:53:04.357Z,6.68
2022-11-17T22:55:33.678Z,5.65
2022-11-17T22:58:01.155Z,5.55
2022-11-17T23:00:27.934Z,5.22
2022-11-17T23:02:55.521Z,5.22
2022-11-17T23:05:22.616Z,5.93
2022-11-17T23:07:49.879Z,5.55
2022-11-17T23:10:16.990Z,5.85
2022-11-17T23:12:44.253Z,4.80
2022-11-17T23:15:10.893Z,4.95
2022-11-17T23:17:38.160Z,5.38
2022-11-17T23:20:05.232Z,5.35
2022-11-17T23:22:34.280Z,4.93
2022-11-17T23:25:00.978Z,4.28
2022-11-17T23:27:28.396Z,4.50
2022-11-17T23:29:55.065Z,4.50
2022-11-17T23:32:22.406Z,4.63
2022-11-17T23:34:49.020Z,4.82
2022-11-17T23:37:16.954Z,4.72
2022-11-17T23:39:44.253Z,4.13
2022-11-17T23:42:11.477Z,3.97
2022-11-17T23:44:38.063Z,4.68
2022-11-17T23:47:05.437Z,4.25
2022-11-17T23:49:32.090Z,4.93
2022-11-17T23:51:59.378Z,5.22
2022-11-17T23:54:25.993Z,4.60
2022-11-17T23:56:53.371Z,4.28
2022-11-17T23:59:22.970Z,4.50
